Time;durP1;ratioP1;P1;durP2;ratioP2;P2;SDS_P1;SDS_P2;PMS_P1;PMS_P2;Temp;Humidity;BMP_temperature;BMP_pressure;BME280_temperature;BME280_humidity;BME280_pressure;Samples;Min_cycle;Max_cycle;Signal;HPM_P1;HPM_P2
2022/11/21 00:01:18;;;;;;;;;1.75;0.50;;;;;10.33;70.33;100438.09;5019625;28;45837;-74
2022/11/21 00:03:46;;;;;;;;;4.75;1.75;;;;;10.25;70.29;100425.59;5019326;28;45686;-74
2022/11/21 00:06:12;;;;;;;;;2.00;1.00;;;;;10.33;70.12;100435.47;5019416;28;45675;-74
2022/11/21 00:08:37;;;;;;;;;1.00;1.00;;;;;10.26;70.04;100431.63;5019572;28;46352;-74
2022/11/21 00:11:03;;;;;;;;;2.50;1.50;;;;;10.29;70.29;100437.50;5019315;28;46326;-74
2022/11/21 00:13:28;;;;;;;;;2.00;1.25;;;;;10.28;70.17;100434.97;5019173;28;45745;-73
2022/11/21 00:15:53;;;;;;;;;1.25;0.75;;;;;10.27;70.28;100433.31;5019440;28;45569;-74
2022/11/21 00:18:19;;;;;;;;;2.00;1.00;;;;;10.28;70.23;100438.44;5019370;28;45729;-73
2022/11/21 00:20:44;;;;;;;;;2.00;1.25;;;;;10.29;70.14;100440.13;5019043;28;46888;-73
2022/11/21 00:23:10;;;;;;;;;1.75;0.50;;;;;10.25;69.94;100424.75;5016890;28;45555;-74
2022/11/21 00:25:37;;;;;;;;;1.00;1.00;;;;;10.22;70.34;100419.72;5015430;28;45670;-75
2022/11/21 00:28:04;;;;;;;;;1.50;0.75;;;;;10.24;70.33;100420.44;5015909;28;47397;-74
2022/11/21 00:30:40;;;;;;;;;2.00;2.00;;;;;10.18;70.33;100397.34;5015962;28;46142;-74
2022/11/21 00:36:58;;;;;;;;;;;;;;;;;;;;;
2022/11/21 00:39:31;;;;;;;;;3.50;1.00;;;;;9.98;70.50;100357.72;4914948;28;77395;-75
2022/11/21 00:41:59;;;;;;;;;3.00;2.00;;;;;10.03;70.48;100373.91;4901516;28;45618;-76
2022/11/21 00:44:25;;;;;;;;;2.00;1.00;;;;;9.78;70.51;100331.31;4916083;28;45847;-73
2022/11/21 00:46:50;;;;;;;;;2.00;1.00;;;;;10.04;70.84;100372.94;4915996;28;45674;-74
2022/11/21 00:49:15;;;;;;;;;2.50;1.75;;;;;9.79;70.86;100332.97;4916060;28;46237;-74
2022/11/21 00:51:41;;;;;;;;;3.00;1.25;;;;;9.95;70.92;100371.00;4932740;28;46127;-74
2022/11/21 00:54:08;;;;;;;;;3.50;1.50;;;;;9.89;71.17;100355.75;4935408;28;45723;-73
2022/11/21 00:56:33;;;;;;;;;5.00;1.50;;;;;9.79;71.17;100336.44;4935403;28;45727;-74
2022/11/21 00:58:58;;;;;;;;;5.00;1.50;;;;;9.92;71.31;100358.16;4935350;28;45638;-75
2022/11/21 01:01:24;;;;;;;;;3.00;2.00;;;;;9.89;71.15;100350.50;4934978;28;45901;-74
2022/11/21 01:03:49;;;;;;;;;3.00;2.00;;;;;9.85;71.50;100350.84;4935305;28;45738;-75
2022/11/21 01:06:40;;;;;;;;;4.50;2.75;;;;;9.83;71.53;100344.88;4934904;28;45699;-76
2022/11/21 01:09:10;;;;;;;;;1.00;1.00;;;;;9.82;71.89;100348.47;4935008;28;46203;-76
2022/11/21 01:11:42;;;;;;;;;1.00;1.00;;;;;9.54;71.61;100313.84;4934615;28;48246;-74
2022/11/21 01:14:34;;;;;;;;;3.50;2.00;;;;;9.74;71.81;100354.25;4919568;28;45777;-74
2022/11/21 01:16:59;;;;;;;;;2.25;2.00;;;;;9.46;72.03;100302.22;4954152;28;45509;-74
2022/11/21 01:19:25;;;;;;;;;5.00;2.00;;;;;9.57;72.01;100308.38;4954038;28;46195;-74
2022/11/21 01:21:55;;;;;;;;;2.75;1.00;;;;;9.52;72.22;100302.63;4937951;28;45699;-73
2022/11/21 01:24:20;;;;;;;;;2.25;1.00;;;;;9.28;72.13;100266.00;4936853;28;45823;-74
2022/11/21 01:26:47;;;;;;;;;3.25;2.00;;;;;9.36;72.08;100273.28;4953818;28;45752;-75
2022/11/21 01:29:16;;;;;;;;;2.75;2.00;;;;;9.40;72.03;100272.13;4953977;28;46310;-73
2022/11/21 01:31:44;;;;;;;;;6.75;2.00;;;;;9.39;72.37;100269.66;4953960;28;46101;-75
2022/11/21 01:34:29;;;;;;;;;4.00;3.00;;;;;9.28;72.38;100267.78;4953466;28;45946;-75
2022/11/21 01:37:10;;;;;;;;;3.50;2.00;;;;;9.25;72.27;100244.47;4953842;28;45659;-74
2022/11/21 01:39:38;;;;;;;;;5.00;3.00;;;;;9.37;72.34;100264.50;4937869;28;46561;-74
2022/11/21 01:42:05;;;;;;;;;1.75;1.00;;;;;9.74;72.17;100306.31;4953893;28;47193;-75
2022/11/21 01:44:52;;;;;;;;;2.00;2.00;;;;;9.54;72.49;100285.06;4954243;28;45584;-75
2022/11/21 01:47:18;;;;;;;;;2.75;1.50;;;;;9.74;72.46;100314.16;4937165;28;45587;-74
2022/11/21 01:49:45;;;;;;;;;3.00;2.00;;;;;9.56;72.51;100279.69;4936991;28;48111;-74
2022/11/21 01:52:36;;;;;;;;;1.25;1.25;;;;;9.68;72.50;100304.97;4953516;28;47449;-75
2022/11/21 01:55:08;;;;;;;;;2.00;1.50;;;;;9.58;72.41;100276.03;5007518;28;45518;-75
2022/11/21 01:57:39;;;;;;;;;2.50;2.00;;;;;9.65;72.59;100276.44;5014687;28;45976;-75
2022/11/21 02:00:17;;;;;;;;;2.25;1.00;;;;;9.69;72.18;100281.34;5014304;28;47305;-74
2022/11/21 02:02:49;;;;;;;;;3.00;2.25;;;;;9.71;72.27;100283.84;5014491;28;46203;-74
2022/11/21 02:05:20;;;;;;;;;2.50;2.00;;;;;9.73;72.39;100281.09;5014111;28;45632;-73
2022/11/21 02:07:48;;;;;;;;;3.75;1.25;;;;;9.73;72.33;100281.94;5014414;28;46003;-74
2022/11/21 02:10:14;;;;;;;;;3.00;2.00;;;;;9.63;72.41;100262.63;5014495;28;45579;-73
2022/11/21 02:12:45;;;;;;;;;4.00;1.00;;;;;9.66;72.31;100278.13;5014555;28;46119;-75
2022/11/21 02:15:11;;;;;;;;;3.00;2.00;;;;;9.60;72.60;100265.47;5014460;28;45765;-75
2022/11/21 02:17:36;;;;;;;;;1.00;1.00;;;;;9.64;72.25;100267.75;5014429;28;45778;-74
2022/11/21 02:20:08;;;;;;;;;3.00;2.00;;;;;9.68;72.49;100276.19;5014571;28;45558;-74
2022/11/21 02:22:57;;;;;;;;;3.00;2.00;;;;;9.63;72.38;100270.47;5014115;28;47578;-74
2022/11/21 02:25:26;;;;;;;;;1.50;1.00;;;;;9.67;72.39;100264.06;5014128;28;45643;-73
2022/11/21 02:27:56;;;;;;;;;6.00;2.50;;;;;9.68;72.48;100261.34;5014100;28;45661;-75
2022/11/21 02:30:22;;;;;;;;;2.50;2.00;;;;;9.71;72.45;100251.63;5014228;28;45597;-76
2022/11/21 02:32:48;;;;;;;;;2.75;2.00;;;;;9.67;72.38;100241.38;5013820;28;46306;-75
2022/11/21 02:35:15;;;;;;;;;3.75;2.00;;;;;9.65;72.44;100230.19;5013850;28;45738;-75
2022/11/21 02:37:44;;;;;;;;;1.50;1.50;;;;;9.75;72.31;100242.59;5014072;28;45824;-75
2022/11/21 02:40:17;;;;;;;;;3.00;1.75;;;;;9.75;72.58;100235.59;5013801;28;46367;-74
2022/11/21 02:42:55;;;;;;;;;1.00;1.00;;;;;9.69;72.28;100229.03;5014112;28;46221;-75
2022/11/21 02:45:35;;;;;;;;;3.00;2.00;;;;;9.77;72.44;100246.75;5014071;28;45802;-75
2022/11/21 02:48:00;;;;;;;;;3.00;1.25;;;;;9.71;72.33;100228.09;5013133;28;45600;-75
2022/11/21 02:50:31;;;;;;;;;4.00;2.25;;;;;9.72;72.21;100230.56;5013394;28;47238;-76
2022/11/21 02:52:59;;;;;;;;;5.00;2.00;;;;;9.74;72.28;100228.69;5013924;28;45545;-74
2022/11/21 02:55:25;;;;;;;;;6.00;2.25;;;;;9.76;72.11;100224.19;5013798;28;45855;-75
2022/11/21 02:57:51;;;;;;;;;3.75;2.00;;;;;9.76;72.38;100213.72;5014129;28;45794;-77
2022/11/21 03:00:17;;;;;;;;;5.25;2.00;;;;;9.78;72.32;100213.56;5013731;28;45558;-74
2022/11/21 03:02:42;;;;;;;;;3.00;3.00;;;;;9.79;72.45;100216.09;5013754;28;46048;-75
2022/11/21 03:08:33;;;;;;;;;3.00;2.00;;;;;9.76;72.21;100203.25;5013744;28;45683;-76
2022/11/21 03:11:10;;;;;;;;;4.50;3.00;;;;;9.81;72.37;100213.38;4995594;28;47384;-75
2022/11/21 03:13:35;;;;;;;;;5.50;2.25;;;;;9.85;72.29;100212.19;4995620;28;47287;-74
2022/11/21 03:16:00;;;;;;;;;6.25;2.00;;;;;9.69;72.01;100179.31;5013749;28;45575;-74
2022/11/21 03:18:33;;;;;;;;;2.25;2.25;;;;;9.82;72.32;100199.34;5013910;28;45599;-75
2022/11/21 03:20:59;;;;;;;;;2.75;2.00;;;;;9.86;72.26;100199.00;5013408;28;47603;-74
2022/11/21 03:23:24;;;;;;;;;6.00;3.00;;;;;9.74;72.31;100167.69;5013834;28;46503;-74
2022/11/21 03:25:49;;;;;;;;;6.00;3.00;;;;;9.86;72.05;100191.16;5013388;28;45756;-74
2022/11/21 03:28:15;;;;;;;;;6.00;3.00;;;;;9.86;72.12;100178.06;5013715;28;45814;-74
2022/11/21 03:30:40;;;;;;;;;2.00;2.00;;;;;9.89;71.98;100177.00;4995298;28;48086;-73
2022/11/21 03:33:05;;;;;;;;;3.75;3.00;;;;;9.75;72.01;100151.88;5013205;28;46130;-74
2022/11/21 03:38:56;;;;;;;;;5.00;3.75;;;;;9.96;72.06;100155.50;5013514;28;45778;-75
2022/11/21 03:41:28;;;;;;;;;3.00;3.00;;;;;9.98;71.71;100145.75;5013307;28;45653;-75
2022/11/21 03:44:11;;;;;;;;;6.00;2.00;;;;;9.98;71.78;100145.75;5013135;28;46076;-73
2022/11/21 03:46:39;;;;;;;;;3.50;2.00;;;;;10.00;71.94;100145.59;5013487;28;45641;-74
2022/11/21 03:49:05;;;;;;;;;3.00;2.00;;;;;9.91;71.70;100125.38;5013305;28;45619;-75
2022/11/21 03:51:31;;;;;;;;;4.25;3.50;;;;;9.93;71.72;100132.16;5012856;28;46882;-74
2022/11/21 03:53:56;;;;;;;;;6.50;4.00;;;;;9.94;71.64;100123.34;4995079;28;48165;-73
2022/11/21 03:56:22;;;;;;;;;4.00;2.00;;;;;9.96;71.67;100125.88;5013374;28;45643;-75
2022/11/21 03:58:48;;;;;;;;;4.50;2.25;;;;;9.93;71.87;100116.44;5015322;28;45783;-74
2022/11/21 04:01:14;;;;;;;;;3.00;3.00;;;;;9.96;71.59;100121.47;4998361;28;46587;-74
2022/11/21 04:03:42;;;;;;;;;3.00;1.50;;;;;9.97;71.73;100120.53;5016554;28;46002;-74
2022/11/21 04:09:29;;;;;;;;;2.75;2.00;;;;;9.99;71.78;100105.53;5016338;28;45703;-75
2022/11/21 04:11:54;;;;;;;;;6.75;3.25;;;;;9.98;71.71;100082.09;5016240;28;46370;-75
2022/11/21 04:14:19;;;;;;;;;6.00;3.00;;;;;9.98;71.82;100069.03;5016270;28;45564;-74
2022/11/21 04:16:45;;;;;;;;;4.50;3.00;;;;;9.91;71.57;100073.91;5016229;28;45667;-76
2022/11/21 04:19:10;;;;;;;;;2.00;0.00;;;;;9.98;71.31;100082.94;5016108;28;45750;-75
2022/11/21 04:21:35;;;;;;;;;7.75;5.00;;;;;9.98;71.45;100074.25;5016111;28;45524;-76
2022/11/21 04:24:01;;;;;;;;;6.50;5.75;;;;;9.98;71.54;100069.88;5016261;28;45646;-75
2022/11/21 04:26:26;;;;;;;;;4.75;4.50;;;;;9.98;71.63;100055.94;5016261;28;45623;-76
2022/11/21 04:28:51;;;;;;;;;6.50;5.50;;;;;9.98;71.62;100051.53;5016249;28;45442;-75
2022/11/21 04:31:17;;;;;;;;;9.50;8.00;;;;;9.96;71.61;100044.75;5015972;28;46235;-74
2022/11/21 04:33:42;;;;;;;;;7.50;6.00;;;;;9.98;71.57;100056.78;5016108;28;45968;-75
2022/11/21 04:39:29;;;;;;;;;5.75;4.00;;;;;9.95;71.58;100051.75;5015970;28;45458;-76
2022/11/21 04:41:54;;;;;;;;;8.50;6.00;;;;;9.93;71.76;100047.63;5015858;28;45588;-73
2022/11/21 04:44:20;;;;;;;;;18.25;17.75;;;;;9.92;71.54;100036.31;4997689;28;45934;-76
2022/11/21 04:46:45;;;;;;;;;25.50;16.50;;;;;9.90;71.63;100035.59;5015522;28;45561;-75
2022/11/21 04:49:10;;;;;;;;;6.00;4.25;;;;;9.89;71.64;100025.25;5015932;28;45721;-75
2022/11/21 04:55:38;;;;;;;;;22.50;19.50;;;;;9.89;71.44;100014.78;5014425;28;46065;-75
2022/11/21 04:58:03;;;;;;;;;17.50;14.75;;;;;9.86;71.50;100007.19;5015893;28;45601;-75
2022/11/21 05:00:28;;;;;;;;;9.50;7.00;;;;;9.86;71.33;100008.00;5015715;28;45672;-74
2022/11/21 05:02:54;;;;;;;;;10.25;7.00;;;;;9.87;71.49;100003.63;4997411;28;47410;-74
2022/11/21 05:05:19;;;;;;;;;7.25;7.00;;;;;9.86;71.35;99992.31;5015474;28;46265;-75
2022/11/21 05:07:44;;;;;;;;;7.00;6.00;;;;;9.87;71.39;99991.38;5015398;28;45513;-75
2022/11/21 05:10:10;;;;;;;;;10.50;7.00;;;;;9.84;71.73;99980.28;5015231;28;45511;-74
2022/11/21 05:15:19;;;;;;;;;5.25;3.25;;;;;9.89;71.23;99973.75;5015132;28;45708;-76
2022/11/21 05:17:45;;;;;;;;;5.00;3.00;;;;;9.89;71.24;99970.28;5015376;28;45712;-75
2022/11/21 05:20:11;;;;;;;;;4.50;3.00;;;;;9.90;71.16;99970.19;5015909;28;45493;-73
2022/11/21 05:22:36;;;;;;;;;7.50;5.75;;;;;9.80;71.40;99948.31;4997245;28;47486;-77
2022/11/21 05:25:02;;;;;;;;;3.00;3.00;;;;;9.88;71.42;99960.81;5015891;28;46297;-74
2022/11/21 05:27:28;;;;;;;;;28.25;23.25;;;;;9.87;71.11;99961.75;5015417;28;45698;-76
2022/11/21 05:29:54;;;;;;;;;8.00;5.75;;;;;9.83;71.07;99966.38;4997594;28;45725;-74
2022/11/21 05:32:19;;;;;;;;;8.50;4.75;;;;;9.88;71.01;99984.34;4997000;28;48357;-76
2022/11/21 05:34:45;;;;;;;;;6.75;6.00;;;;;9.87;71.31;99990.53;5014876;28;46231;-75
2022/11/21 05:40:32;;;;;;;;;8.75;5.75;;;;;9.86;71.43;99981.84;5015029;28;45628;-74
2022/11/21 05:45:41;;;;;;;;;5.25;3.00;;;;;9.83;71.41;99973.38;5014572;28;46046;-75
2022/11/21 05:48:06;;;;;;;;;3.75;3.00;;;;;9.82;71.20;99963.91;5014901;28;45465;-73
2022/11/21 05:50:35;;;;;;;;;5.00;3.00;;;;;9.81;71.56;99957.84;5014872;28;45807;-74
2022/11/21 05:53:04;;;;;;;;;6.00;3.00;;;;;9.76;71.36;99932.97;5014708;28;45807;-73
2022/11/21 05:55:29;;;;;;;;;5.00;4.00;;;;;9.78;71.65;99937.13;5007995;28;47250;-72
2022/11/21 05:57:58;;;;;;;;;5.25;5.00;;;;;9.69;71.43;99924.78;5014734;28;45517;-73
2022/11/21 06:00:23;;;;;;;;;5.75;2.00;;;;;9.76;71.55;99935.59;5014564;28;45676;-75
2022/11/21 06:05:33;;;;;;;;;12.75;5.25;;;;;9.65;71.60;99907.66;5014279;28;46082;-73
2022/11/21 06:07:58;;;;;;;;;6.00;4.50;;;;;9.76;71.52;99919.91;5014197;28;45667;-73
2022/11/21 06:10:23;;;;;;;;;3.00;3.00;;;;;9.77;71.43;99903.25;5014484;28;45673;-74
2022/11/21 06:12:49;;;;;;;;;5.00;5.00;;;;;9.76;71.66;99885.91;5014503;28;45651;-74
2022/11/21 06:15:14;;;;;;;;;4.25;4.00;;;;;9.76;71.21;99876.28;5014153;28;46009;-74
2022/11/21 06:17:39;;;;;;;;;5.50;5.25;;;;;9.80;71.63;99875.06;5012255;28;45779;-72
2022/11/21 06:20:05;;;;;;;;;6.50;5.00;;;;;9.81;71.30;99863.66;5014390;28;45573;-74
2022/11/21 06:25:57;;;;;;;;;7.00;5.50;;;;;9.82;71.34;99873.19;5013917;28;45636;-74
2022/11/21 06:28:23;;;;;;;;;8.75;4.50;;;;;9.84;71.23;99875.66;5014362;28;45696;-74
2022/11/21 06:30:50;;;;;;;;;7.00;5.00;;;;;9.82;71.29;99861.88;5014310;28;45456;-74
2022/11/21 06:33:16;;;;;;;;;6.00;5.00;;;;;9.81;71.03;99852.34;5013915;28;47211;-74
2022/11/21 06:35:42;;;;;;;;;5.50;5.00;;;;;9.85;71.47;99856.38;5014038;28;46018;-74
2022/11/21 06:41:31;;;;;;;;;6.00;6.00;;;;;9.87;71.28;99852.72;5013583;28;45716;-74
2022/11/21 06:43:59;;;;;;;;;14.00;11.50;;;;;9.87;71.44;99852.72;5013565;28;46465;-75
2022/11/21 06:46:25;;;;;;;;;11.75;7.50;;;;;9.83;71.20;99840.81;5013567;28;46967;-74
2022/11/21 06:48:50;;;;;;;;;9.75;7.00;;;;;9.86;71.31;99853.66;5014025;28;45747;-74
2022/11/21 06:51:19;;;;;;;;;10.25;7.50;;;;;9.85;71.27;99851.16;5013634;28;45776;-76
2022/11/21 06:53:45;;;;;;;;;7.50;6.75;;;;;9.84;71.38;99839.84;5013452;28;45923;-74
2022/11/21 06:56:10;;;;;;;;;10.50;7.75;;;;;9.84;71.44;99832.00;5013888;28;46289;-74
2022/11/21 06:58:36;;;;;;;;;10.75;8.50;;;;;9.86;71.42;99829.28;4995860;28;45662;-75
2022/11/21 07:01:08;;;;;;;;;8.75;8.25;;;;;9.79;71.33;99797.53;5013408;28;45860;-73
2022/11/21 07:03:35;;;;;;;;;11.75;11.00;;;;;9.83;71.20;99783.25;5013581;28;46493;-74
2022/11/21 07:06:01;;;;;;;;;10.75;10.50;;;;;9.89;71.09;99788.00;5013396;28;46090;-74
2022/11/21 07:11:48;;;;;;;;;13.00;12.25;;;;;9.90;71.53;99765.28;5013474;28;45640;-78
2022/11/21 07:14:14;;;;;;;;;17.50;10.75;;;;;9.89;71.36;99755.75;5013968;28;45598;-77
2022/11/21 07:16:39;;;;;;;;;10.50;8.00;;;;;9.89;71.50;99748.75;5013717;28;45944;-77
2022/11/21 07:19:05;;;;;;;;;12.25;10.50;;;;;9.93;71.47;99741.50;5013552;28;45790;-78
2022/11/21 07:21:30;;;;;;;;;13.25;10.75;;;;;9.94;71.15;99743.97;4995375;28;45678;-77
2022/11/21 07:27:17;;;;;;;;;16.25;12.50;;;;;9.88;71.06;99714.88;5012566;28;46113;-77
2022/11/21 07:29:43;;;;;;;;;14.25;12.00;;;;;9.95;70.91;99714.22;5013249;28;45655;-76
2022/11/21 07:32:08;;;;;;;;;10.50;9.00;;;;;9.93;71.08;99710.91;5013513;28;45553;-78
2022/11/21 07:34:34;;;;;;;;;10.00;6.50;;;;;9.96;70.54;99713.28;5017523;28;46481;-78
2022/11/21 07:37:00;;;;;;;;;11.00;8.00;;;;;9.90;70.87;99703.31;5017071;28;46842;-78
2022/11/21 07:39:25;;;;;;;;;10.25;8.25;;;;;9.90;70.71;99695.47;5016745;28;45885;-76
2022/11/21 07:41:50;;;;;;;;;12.25;10.50;;;;;9.93;70.47;99708.28;5017370;28;45590;-79
2022/11/21 07:44:16;;;;;;;;;10.00;8.00;;;;;9.93;70.53;99699.63;5017450;28;45611;-76
2022/11/21 07:46:41;;;;;;;;;12.75;11.50;;;;;9.93;70.30;99699.63;5017418;28;46989;-77
2022/11/21 07:49:06;;;;;;;;;11.25;9.25;;;;;9.89;70.32;99691.19;5017160;28;45558;-79
2022/11/21 07:51:32;;;;;;;;;10.00;9.50;;;;;9.86;70.29;99678.38;5017603;28;45880;-76
2022/11/21 07:53:57;;;;;;;;;10.50;10.50;;;;;9.88;70.38;99673.81;5017619;28;46376;-75
2022/11/21 07:56:25;;;;;;;;;14.50;9.00;;;;;9.87;70.43;99666.97;5017328;28;45959;-76
2022/11/21 07:58:51;;;;;;;;;12.25;11.00;;;;;9.86;70.26;99648.78;5016240;28;45634;-77
2022/11/21 08:01:17;;;;;;;;;15.00;12.00;;;;;9.86;70.07;99639.13;5017428;28;45842;-78
2022/11/21 08:03:42;;;;;;;;;16.50;11.75;;;;;9.81;70.34;99620.38;5017299;28;47401;-76
2022/11/21 08:06:11;;;;;;;;;12.50;11.75;;;;;9.84;70.05;99621.91;5016765;28;46116;-77
2022/11/21 08:08:36;;;;;;;;;16.50;13.25;;;;;9.77;70.33;99608.50;5016391;28;45528;-78
2022/11/21 08:11:06;;;;;;;;;21.25;13.00;;;;;9.82;70.16;99629.06;5016446;28;45793;-77
2022/11/21 08:13:31;;;;;;;;;20.25;14.50;;;;;9.82;69.99;99629.06;4998377;28;47081;-77
2022/11/21 08:15:57;;;;;;;;;15.75;13.75;;;;;9.81;70.23;99630.00;5016491;28;45637;-76
2022/11/21 08:18:22;;;;;;;;;18.25;16.00;;;;;9.74;70.13;99615.78;5016176;28;45528;-77
2022/11/21 08:20:48;;;;;;;;;18.00;15.50;;;;;9.80;70.22;99629.19;5016090;28;45524;-76
2022/11/21 08:23:14;;;;;;;;;16.00;15.00;;;;;9.80;70.51;99626.56;5015946;28;46625;-77
2022/11/21 08:25:41;;;;;;;;;19.50;17.00;;;;;9.81;70.27;99614.31;5015764;28;47308;-77
2022/11/21 08:28:10;;;;;;;;;17.75;14.50;;;;;9.81;70.45;99622.16;5016174;28;45516;-78
2022/11/21 08:30:36;;;;;;;;;11.75;11.00;;;;;9.74;70.45;99613.16;5016177;28;45602;-76
2022/11/21 08:33:02;;;;;;;;;13.50;12.75;;;;;9.83;70.38;99635.94;5016157;28;45595;-78
2022/11/21 08:35:28;;;;;;;;;16.00;13.50;;;;;9.85;70.30;99626.19;5015721;28;46118;-77
2022/11/21 08:37:57;;;;;;;;;21.50;16.50;;;;;9.86;70.35;99620.81;5015881;28;45561;-76
2022/11/21 08:40:24;;;;;;;;;19.25;16.00;;;;;9.87;70.61;99624.28;5016071;28;45665;-77
2022/11/21 08:43:03;;;;;;;;;13.25;12.50;;;;;9.90;70.46;99621.38;4998004;28;47210;-78
2022/11/21 08:45:30;;;;;;;;;14.00;13.00;;;;;9.91;70.31;99630.91;5014450;28;46499;-77
2022/11/21 08:47:55;;;;;;;;;21.00;16.50;;;;;9.78;70.41;99610.16;5015516;28;45910;-78
2022/11/21 08:50:22;;;;;;;;;14.25;12.25;;;;;9.94;70.35;99620.16;5015680;28;45601;-77
2022/11/21 08:52:47;;;;;;;;;12.75;12.00;;;;;9.84;70.22;99595.75;5015508;28;47855;-77
2022/11/21 08:55:13;;;;;;;;;17.00;13.50;;;;;9.93;70.21;99593.16;5015083;28;47063;-77
2022/11/21 08:57:39;;;;;;;;;13.00;12.00;;;;;9.99;70.13;99591.81;5015655;28;45659;-76
2022/11/21 09:00:06;;;;;;;;;12.75;12.25;;;;;10.01;70.25;99575.03;5015933;28;45641;-79
2022/11/21 09:02:34;;;;;;;;;20.50;13.00;;;;;9.94;70.38;99549.53;4997769;28;47565;-79
2022/11/21 09:04:59;;;;;;;;;15.50;13.00;;;;;9.98;70.23;99548.31;5015278;28;46220;-77
2022/11/21 09:07:25;;;;;;;;;15.00;12.25;;;;;10.01;70.41;99545.44;5015565;28;45641;-78
2022/11/21 09:13:13;;;;;;;;;13.00;12.00;;;;;10.02;70.52;99553.16;5015411;28;45951;-77
2022/11/21 09:18:22;;;;;;;;;5.75;3.50;;;;;10.08;70.37;99557.88;5015756;28;45802;-77
2022/11/21 09:20:47;;;;;;;;;14.50;13.00;;;;;10.10;70.21;99542.00;5015119;28;45790;-76
2022/11/21 09:23:14;;;;;;;;;12.50;11.50;;;;;10.11;70.39;99538.44;5015378;28;46774;-78
2022/11/21 09:25:41;;;;;;;;;14.25;11.25;;;;;10.09;70.31;99516.84;5014890;28;46030;-76
2022/11/21 09:28:08;;;;;;;;;13.50;10.75;;;;;10.12;70.43;99524.41;5015431;28;45854;-77
2022/11/21 09:30:34;;;;;;;;;12.25;10.00;;;;;10.14;70.35;99506.78;5015264;28;45661;-78
2022/11/21 09:33:01;;;;;;;;;13.50;10.75;;;;;10.16;70.15;99502.25;5015279;28;46297;-78
2022/11/21 09:35:27;;;;;;;;;12.50;11.50;;;;;10.17;70.08;99493.47;4997162;28;46134;-79
2022/11/21 09:37:53;;;;;;;;;8.00;8.00;;;;;10.16;70.06;99486.56;5014915;28;45631;-76
2022/11/21 09:43:58;;;;;;;;;11.00;9.25;;;;;10.18;70.20;99465.50;5014828;28;45651;-76
2022/11/21 09:46:30;;;;;;;;;13.25;10.00;;;;;10.18;70.20;99439.31;5014874;28;47255;-79
2022/11/21 09:48:59;;;;;;;;;18.00;11.50;;;;;10.15;69.84;99429.09;4997580;28;45814;-77
2022/11/21 09:51:29;;;;;;;;;12.75;12.00;;;;;10.16;70.01;99413.28;5014865;28;45966;-76
2022/11/21 09:54:10;;;;;;;;;12.00;8.75;;;;;10.19;70.06;99412.19;5014275;28;47747;-77
2022/11/21 09:56:40;;;;;;;;;12.00;10.00;;;;;10.13;70.15;99403.06;5014117;28;46652;-77
2022/11/21 09:59:18;;;;;;;;;13.00;12.00;;;;;10.23;69.96;99413.56;5014638;28;45655;-77
2022/11/21 10:01:44;;;;;;;;;11.00;9.75;;;;;10.21;69.99;99405.84;5013121;28;45927;-78
2022/11/21 10:04:09;;;;;;;;;11.75;10.75;;;;;10.28;70.03;99391.25;5014277;28;45646;-78
2022/11/21 10:06:56;;;;;;;;;10.00;8.75;;;;;10.30;69.89;99384.09;5014534;28;45745;-77
2022/11/21 10:09:53;;;;;;;;;12.25;11.75;;;;;10.32;70.00;99369.06;5014520;28;45831;-77
2022/11/21 10:12:35;;;;;;;;;13.75;9.75;;;;;10.36;69.86;99367.03;4953666;28;45515;-77
2022/11/21 10:15:19;;;;;;;;;13.75;12.00;;;;;10.37;69.79;99366.88;4953492;28;46451;-76
2022/11/21 10:18:10;;;;;;;;;10.50;9.75;;;;;10.39;69.80;99328.28;4953565;28;46319;-77
2022/11/21 10:20:47;;;;;;;;;9.50;8.00;;;;;10.41;69.60;99342.09;4953403;28;45603;-78
2022/11/21 10:26:43;;;;;;;;;7.75;6.00;;;;;10.46;69.54;99329.41;4953115;28;45656;-78
2022/11/21 10:29:42;;;;;;;;;10.00;7.50;;;;;10.49;69.56;99312.56;4953244;28;47625;-77
2022/11/21 10:32:23;;;;;;;;;10.25;7.75;;;;;10.53;69.62;99306.91;4953422;28;45921;-77
2022/11/21 10:34:52;;;;;;;;;8.50;6.50;;;;;10.57;69.49;99309.25;4953979;28;45736;-77
2022/11/21 10:37:36;;;;;;;;;7.25;6.50;;;;;10.58;69.51;99296.00;4953211;28;46659;-77
2022/11/21 10:46:22;;;;;;;;;6.25;5.00;;;;;10.67;69.17;99273.38;4953103;28;45734;-76
2022/11/21 10:49:00;;;;;;;;;8.00;6.00;;;;;10.70;68.98;99260.00;5004059;28;46437;-78
2022/11/21 10:51:51;;;;;;;;;8.00;4.00;;;;;10.69;69.04;99251.31;5013842;28;45710;-77
2022/11/21 10:54:32;;;;;;;;;3.75;3.75;;;;;10.71;68.98;99253.78;5013736;28;45545;-77
2022/11/21 10:57:06;;;;;;;;;6.50;4.50;;;;;10.72;69.10;99245.81;5013983;28;45556;-78
2022/11/21 10:59:31;;;;;;;;;6.00;3.00;;;;;10.73;68.84;99233.53;5013689;28;47257;-78
2022/11/21 11:02:18;;;;;;;;;6.25;4.50;;;;;10.70;68.87;99229.38;4995906;28;45746;-77
2022/11/21 11:04:43;;;;;;;;;8.00;4.00;;;;;10.75;68.73;99232.41;5013491;28;45600;-77
2022/11/21 11:07:25;;;;;;;;;7.50;6.00;;;;;10.76;68.74;99226.19;5013080;28;45521;-78
2022/11/21 11:09:51;;;;;;;;;5.00;4.00;;;;;10.68;68.63;99201.72;5013286;28;46787;-78
2022/11/21 11:15:25;;;;;;;;;8.00;6.00;;;;;10.76;68.81;99217.50;5013496;28;45544;-77
2022/11/21 11:17:59;;;;;;;;;6.00;4.00;;;;;10.78;68.39;99213.78;5013913;28;45562;-78
2022/11/21 11:20:34;;;;;;;;;7.25;6.00;;;;;10.80;68.76;99216.25;5013107;28;47281;-77
2022/11/21 11:22:59;;;;;;;;;6.00;4.00;;;;;10.78;68.63;99195.47;5013325;28;46994;-77
2022/11/21 11:25:25;;;;;;;;;6.25;4.50;;;;;10.80;68.50;99195.28;4995077;28;45632;-77
2022/11/21 11:27:50;;;;;;;;;6.00;4.00;;;;;10.79;68.60;99191.88;5013392;28;45653;-76
2022/11/21 11:30:18;;;;;;;;;8.00;4.50;;;;;10.80;68.58;99182.19;5013507;28;46481;-78
2022/11/21 11:32:44;;;;;;;;;7.75;6.00;;;;;10.81;68.50;99166.34;5013464;28;46426;-77
2022/11/21 11:35:22;;;;;;;;;9.00;6.00;;;;;10.83;68.38;99163.59;5013968;28;45608;-77
2022/11/21 11:38:03;;;;;;;;;5.50;4.00;;;;;10.83;68.53;99159.16;5013770;28;45588;-78
2022/11/21 11:40:37;;;;;;;;;6.75;4.50;;;;;10.83;68.52;99132.97;5013305;28;47473;-77
2022/11/21 11:52:31;;;;;;;;;6.75;6.50;;;;;10.83;68.25;99077.97;4900891;28;45561;-77
2022/11/21 11:58:42;;;;;;;;;8.25;7.00;;;;;10.82;68.29;99029.16;4932669;28;45663;-79
2022/11/21 12:01:35;;;;;;;;;15.00;12.00;;;;;10.80;68.20;99015.38;4933079;28;45646;-76
2022/11/21 12:04:18;;;;;;;;;6.00;6.00;;;;;10.79;68.29;98992.78;4932983;28;46581;-77
2022/11/21 12:06:43;;;;;;;;;5.50;3.00;;;;;10.79;68.10;98990.16;4932495;28;47571;-78
2022/11/21 12:15:51;;;;;;;;;6.00;4.00;;;;;10.81;68.33;98979.50;4932322;28;45612;-78
2022/11/21 12:18:19;;;;;;;;;7.75;5.50;;;;;10.82;68.39;98965.44;4932211;28;46258;-78
2022/11/21 12:20:44;;;;;;;;;7.00;4.00;;;;;10.83;68.36;98964.47;4935904;28;46194;-78
2022/11/21 12:23:12;;;;;;;;;3.50;2.00;;;;;10.80;68.22;98946.44;4999852;28;45576;-76
2022/11/21 12:25:48;;;;;;;;;6.25;6.00;;;;;10.86;68.20;98948.44;5016003;28;46718;-77
2022/11/21 12:28:25;;;;;;;;;5.50;4.00;;;;;10.87;67.95;98937.00;5014887;28;47116;-77
2022/11/21 12:31:33;;;;;;;;;5.00;4.50;;;;;10.78;68.09;98920.41;5016067;28;45798;-79
2022/11/21 12:34:04;;;;;;;;;7.00;5.00;;;;;10.88;68.26;98918.53;4954943;28;45693;-77
2022/11/21 12:36:40;;;;;;;;;6.50;5.00;;;;;10.82;68.34;98900.78;4954816;28;48320;-77
2022/11/21 12:39:17;;;;;;;;;5.50;3.75;;;;;10.91;68.53;98888.56;4954925;28;46167;-78
2022/11/21 12:45:10;;;;;;;;;6.25;4.00;;;;;10.94;68.64;98864.69;4954967;28;45733;-76
2022/11/21 13:01:15;;;;;;;;;6.25;4.00;;;;;10.91;69.19;98812.56;4915895;28;46058;-78
2022/11/21 13:04:02;;;;;;;;;2.50;2.50;;;;;10.92;69.15;98819.47;4877984;29;45721;-76
2022/11/21 13:06:32;;;;;;;;;5.50;3.75;;;;;10.90;69.20;98809.13;4878129;29;46040;-76
2022/11/21 13:09:03;;;;;;;;;6.00;4.00;;;;;10.81;69.10;98796.16;4878226;29;45667;-76
2022/11/21 13:12:00;;;;;;;;;5.50;3.00;;;;;10.88;68.99;98799.81;4904073;28;46653;-77
2022/11/21 13:14:49;;;;;;;;;2.75;2.00;;;;;10.86;69.19;98784.22;4915617;28;46379;-78
2022/11/21 13:17:29;;;;;;;;;2.25;2.00;;;;;10.86;69.11;98775.53;4915798;28;45622;-76
2022/11/21 13:20:14;;;;;;;;;3.75;2.00;;;;;10.82;69.21;98756.72;4915906;28;45881;-76
2022/11/21 13:22:39;;;;;;;;;6.00;3.00;;;;;10.83;69.16;98740.03;4915918;28;45733;-78
2022/11/21 13:28:31;;;;;;;;;3.50;2.75;;;;;10.83;69.42;98708.59;4915603;28;45585;-77
2022/11/21 13:30:58;;;;;;;;;2.25;2.00;;;;;10.83;69.53;98703.34;4915028;28;45929;-77